Time;durP1;ratioP1;P1;durP2;ratioP2;P2;SDS_P1;SDS_P2;PMS_P1;PMS_P2;Temp;Humidity;BMP_temperature;BMP_pressure;BME280_temperature;BME280_humidity;BME280_pressure;Samples;Min_cycle;Max_cycle;Signal;HPM_P1;HPM_P2
2022/01/17 00:00:09;;;;;;;9.53;8.67;;;;;;;4.98;96.14;101457.53;5086105;28;20278;-80
2022/01/17 00:02:36;;;;;;;10.67;9.00;;;;;;;5.00;96.26;101447.22;5085728;28;20200;-80
2022/01/17 00:05:03;;;;;;;14.23;9.73;;;;;;;5.01;96.62;101436.03;5086419;28;20204;-79
2022/01/17 00:07:30;;;;;;;11.17;9.43;;;;;;;5.04;96.21;101452.50;5087128;28;20223;-80
2022/01/17 00:09:57;;;;;;;15.93;9.73;;;;;;;5.00;95.90;101452.41;5085852;28;20736;-81
2022/01/17 00:12:24;;;;;;;9.77;8.77;;;;;;;5.00;96.41;101447.22;5086433;28;20204;-79
2022/01/17 00:14:50;;;;;;;9.23;7.53;;;;;;;5.04;96.08;101442.13;5086343;28;20248;-79
2022/01/17 00:17:30;;;;;;;15.83;8.73;;;;;;;5.02;96.66;101435.19;5085689;28;20224;-80
2022/01/17 00:19:57;;;;;;;15.57;9.17;;;;;;;5.01;96.89;101429.13;5085890;28;20203;-79
2022/01/17 00:22:24;;;;;;;10.30;7.87;;;;;;;5.06;96.72;101439.59;5086566;28;20200;-80
2022/01/17 00:24:54;;;;;;;10.80;7.40;;;;;;;5.08;96.64;101451.72;5085503;28;20739;-80
2022/01/17 00:27:20;;;;;;;11.43;7.70;;;;;;;5.11;96.74;101456.06;5086337;28;20213;-81
2022/01/17 00:29:46;;;;;;;8.50;6.97;;;;;;;5.10;96.78;101480.22;5085702;28;20543;-79
2022/01/17 00:32:13;;;;;;;7.73;6.93;;;;;;;5.14;96.04;101479.44;5086404;28;20237;-79
2022/01/17 00:34:40;;;;;;;11.60;7.47;;;;;;;5.19;96.30;101498.50;5086377;28;20208;-81
2022/01/17 00:37:06;;;;;;;7.13;6.37;;;;;;;5.15;95.85;101505.34;5088340;28;20269;-79
2022/01/17 00:39:32;;;;;;;9.60;6.90;;;;;;;5.20;95.98;101520.09;5089122;28;20259;-79
2022/01/17 00:42:00;;;;;;;8.27;5.23;;;;;;;5.25;95.12;101546.94;5089826;28;20208;-79
2022/01/17 00:44:26;;;;;;;6.83;5.33;;;;;;;5.25;94.97;101567.63;5089193;28;20208;-77
2022/01/17 00:46:53;;;;;;;5.90;5.23;;;;;;;5.21;94.51;101556.34;5089482;28;20210;-79
2022/01/17 00:49:20;;;;;;;5.50;4.53;;;;;;;5.20;94.67;101553.75;5089373;28;20734;-80
2022/01/17 00:51:46;;;;;;;8.90;4.20;;;;;;;5.24;95.34;101538.31;5089531;28;20786;-80
2022/01/17 00:54:13;;;;;;;5.90;3.40;;;;;;;5.23;95.08;101540.84;5089670;28;20210;-79
2022/01/17 00:56:39;;;;;;;2.43;2.17;;;;;;;5.20;93.41;101552.03;5089760;28;20224;-80
2022/01/17 00:59:07;;;;;;;3.53;2.37;;;;;;;5.20;93.29;101574.44;5089999;28;20224;-80
2022/01/17 01:01:33;;;;;;;2.20;1.83;;;;;;;5.17;92.44;101589.06;5089727;28;20230;-78
2022/01/17 01:04:00;;;;;;;5.00;1.73;;;;;;;5.21;90.68;101633.13;5090111;28;20212;-78
2022/01/17 01:06:26;;;;;;;2.40;1.00;;;;;;;5.13;89.87;101644.19;5089917;28;20204;-81
2022/01/17 01:08:52;;;;;;;3.57;1.47;;;;;;;5.13;89.24;101679.53;5089692;28;20751;-79
2022/01/17 01:11:19;;;;;;;3.93;1.03;;;;;;;5.07;89.68;101693.19;5089684;28;20212;-78
2022/01/17 01:13:45;;;;;;;3.87;1.20;;;;;;;5.06;89.24;101699.22;5088549;28;20561;-80
2022/01/17 01:16:30;;;;;;;3.80;1.50;;;;;;;5.01;88.64;101718.06;5089067;28;20313;-80
2022/01/17 01:19:18;;;;;;;3.43;0.90;;;;;;;5.03;88.26;101725.03;5089745;28;20319;-79
2022/01/17 01:21:58;;;;;;;5.40;1.03;;;;;;;4.99;88.77;101715.44;5089111;28;20774;-79
2022/01/17 01:29:56;;;;;;;5.90;1.40;;;;;;;4.84;91.40;101655.59;5087290;28;20715;-80
2022/01/17 01:32:30;;;;;;;6.03;1.63;;;;;;;4.71;92.02;101654.38;5089116;28;20204;-79
2022/01/17 01:34:59;;;;;;;2.83;1.20;;;;;;;4.76;92.07;101645.03;5089017;28;20204;-79
2022/01/17 01:37:25;;;;;;;2.73;1.03;;;;;;;4.74;92.03;101629.47;5089294;28;20805;-78
2022/01/17 01:39:53;;;;;;;4.23;1.37;;;;;;;4.77;91.89;101621.78;5088696;28;20220;-80
2022/01/17 01:42:22;;;;;;;2.43;1.07;;;;;;;4.80;91.94;101648.56;5088599;28;20212;-79
2022/01/17 01:44:51;;;;;;;2.73;1.00;;;;;;;4.77;91.72;101645.06;5088135;28;20250;-80
2022/01/17 01:47:21;;;;;;;3.33;1.13;;;;;;;4.77;91.57;101639.88;5087181;28;20227;-80
2022/01/17 01:49:48;;;;;;;4.13;1.30;;;;;;;4.77;91.74;101647.66;5087569;28;20332;-80
2022/01/17 01:52:15;;;;;;;1.13;0.97;;;;;;;4.76;91.33;101634.69;5088777;28;20693;-79
2022/01/17 01:54:41;;;;;;;6.07;1.70;;;;;;;4.79;91.01;101642.50;5088175;28;20208;-80
2022/01/17 01:57:08;;;;;;;3.00;1.07;;;;;;;4.77;90.25;101646.78;5087852;28;20228;-81
2022/01/17 01:59:34;;;;;;;4.37;1.30;;;;;;;4.81;89.34;101673.59;5088306;28;20220;-79
2022/01/17 02:02:00;;;;;;;4.47;1.00;;;;;;;4.79;88.34;101686.50;5088571;28;20213;-79
2022/01/17 02:04:27;;;;;;;3.43;0.93;;;;;;;4.85;87.25;101727.16;5088767;28;20207;-81
2022/01/17 02:06:55;;;;;;;2.17;0.53;;;;;;;4.88;85.20;101771.22;5088186;28;20230;-78
2022/01/17 02:09:23;;;;;;;4.10;1.03;;;;;;;4.91;83.01;101843.75;5088370;28;20224;-78
2022/01/17 02:11:50;;;;;;;5.70;0.73;;;;;;;4.92;82.45;101880.00;5088986;28;20209;-80
2022/01/17 02:14:17;;;;;;;3.93;0.90;;;;;;;4.96;82.54;101901.69;5088073;28;20213;-79
2022/01/17 02:16:45;;;;;;;2.87;1.30;;;;;;;4.88;82.99;101898.00;5087466;28;20709;-79
2022/01/17 02:19:12;;;;;;;4.03;0.87;;;;;;;4.89;83.04;101881.63;5087926;28;20239;-79
2022/01/17 02:21:46;;;;;;;5.33;1.00;;;;;;;4.89;83.99;101892.84;5088481;28;20644;-79
2022/01/17 02:24:16;;;;;;;1.57;0.80;;;;;;;4.87;83.93;101894.50;5087160;28;20707;-79
2022/01/17 02:26:43;;;;;;;3.57;0.70;;;;;;;4.89;84.19;101899.75;5087624;28;20881;-78
2022/01/17 02:29:09;;;;;;;5.87;0.90;;;;;;;4.86;84.46;101874.66;5087383;28;20236;-77
2022/01/17 02:31:36;;;;;;;2.87;0.90;;;;;;;4.84;85.05;101853.06;5087203;28;20262;-78
2022/01/17 02:34:03;;;;;;;4.20;0.83;;;;;;;4.84;85.86;101837.53;5087483;28;20634;-78
2022/01/17 02:36:30;;;;;;;5.03;0.93;;;;;;;4.78;86.31;101816.69;5087235;28;20243;-78
2022/01/17 02:38:58;;;;;;;4.80;0.97;;;;;;;4.75;86.14;101806.22;5087378;28;20281;-79
2022/01/17 02:41:28;;;;;;;3.60;1.10;;;;;;;4.76;86.18;101811.47;5087491;28;20200;-78
2022/01/17 02:43:56;;;;;;;7.40;1.43;;;;;;;4.73;86.82;101785.50;5088468;28;20204;-78
2022/01/17 02:46:25;;;;;;;6.13;1.87;;;;;;;4.74;86.75;101757.94;5087654;28;20199;-78
2022/01/17 02:48:52;;;;;;;4.73;1.73;;;;;;;4.72;86.72;101750.13;5086970;28;20230;-78
2022/01/17 02:51:18;;;;;;;3.97;1.10;;;;;;;4.66;87.09;101705.09;5086780;28;20675;-78
2022/01/17 02:53:44;;;;;;;6.77;1.40;;;;;;;4.69;86.36;101724.19;5087466;28;20204;-79
2022/01/17 02:56:12;;;;;;;7.70;1.80;;;;;;;4.69;86.54;101723.31;5087292;28;20284;-78
2022/01/17 02:58:40;;;;;;;7.43;1.80;;;;;;;4.72;85.88;101731.16;5086583;28;20273;-79
2022/01/17 03:01:09;;;;;;;7.33;1.53;;;;;;;4.72;86.37;101764.78;5086243;28;20218;-77
2022/01/17 03:03:35;;;;;;;7.57;1.70;;;;;;;4.68;85.72;101761.22;5086023;28;20235;-77
2022/01/17 03:06:03;;;;;;;4.70;1.30;;;;;;;4.71;86.54;101773.38;5086751;28;20265;-79
2022/01/17 03:08:31;;;;;;;5.20;1.50;;;;;;;4.69;86.32;101787.97;5087066;28;20280;-80
2022/01/17 03:11:00;;;;;;;8.73;1.47;;;;;;;4.67;86.56;101802.56;5085976;28;20204;-79
2022/01/17 03:13:32;;;;;;;5.73;1.27;;;;;;;4.61;86.76;101805.84;5085798;28;20331;-78
2022/01/17 03:16:00;;;;;;;6.33;1.93;;;;;;;4.67;85.66;101803.44;5086362;28;20200;-78
2022/01/17 03:18:29;;;;;;;6.73;1.30;;;;;;;4.71;86.56;101782.00;5086016;28;20224;-79
2022/01/17 03:20:55;;;;;;;6.17;1.40;;;;;;;4.63;85.87;101795.56;5086074;28;20742;-77
2022/01/17 03:23:22;;;;;;;5.30;1.57;;;;;;;4.72;84.90;101813.94;5086758;28;20213;-79
2022/01/17 03:25:49;;;;;;;5.80;1.50;;;;;;;4.73;84.48;101837.22;5085443;28;20199;-78
2022/01/17 03:28:15;;;;;;;9.10;1.47;;;;;;;4.72;84.08;101825.16;5086522;28;20240;-77
2022/01/17 03:30:43;;;;;;;9.73;1.70;;;;;;;4.77;83.20;101839.06;5086197;28;20204;-79
2022/01/17 03:33:13;;;;;;;4.67;1.50;;;;;;;4.80;82.95;101825.34;5085998;28;20281;-80
2022/01/17 03:35:40;;;;;;;8.93;1.57;;;;;;;4.76;82.87;101833.88;5086233;28;20302;-78
2022/01/17 03:38:09;;;;;;;6.07;1.37;;;;;;;4.75;83.18;101851.06;5085444;28;20227;-79
2022/01/17 03:40:36;;;;;;;7.50;1.90;;;;;;;4.74;82.51;101857.09;5085872;28;20686;-79
2022/01/17 03:43:03;;;;;;;6.77;1.57;;;;;;;4.74;83.07;101832.94;5086530;28;20211;-79
2022/01/17 03:45:30;;;;;;;8.57;1.73;;;;;;;4.70;83.94;101825.94;5086084;28;20742;-79
2022/01/17 03:47:58;;;;;;;6.60;1.90;;;;;;;4.64;83.99;101818.00;5085705;28;20220;-78
2022/01/17 03:50:26;;;;;;;5.53;1.50;;;;;;;4.67;83.62;101813.78;5085590;28;20200;-79
2022/01/17 03:52:53;;;;;;;6.30;2.27;;;;;;;4.62;84.56;101784.34;5085809;28;20281;-77
2022/01/17 03:55:23;;;;;;;5.80;1.97;;;;;;;4.66;84.86;101767.19;5086190;28;20262;-79
2022/01/17 03:57:50;;;;;;;4.13;1.17;;;;;;;4.67;84.64;101758.59;5086257;28;20247;-80
2022/01/17 04:00:19;;;;;;;5.23;1.93;;;;;;;4.67;84.79;101775.00;5085724;28;20208;-79
2022/01/17 04:02:46;;;;;;;5.73;1.40;;;;;;;4.67;84.56;101766.34;5086413;28;20204;-78
2022/01/17 04:05:14;;;;;;;11.97;1.70;;;;;;;4.66;83.76;101800.81;5086332;28;20273;-78
2022/01/17 04:07:40;;;;;;;7.17;1.90;;;;;;;4.62;84.36;101793.78;5086342;28;20204;-78
2022/01/17 04:10:07;;;;;;;6.90;1.57;;;;;;;4.63;84.47;101803.31;5085900;28;20204;-79
2022/01/17 04:12:34;;;;;;;7.20;1.80;;;;;;;4.67;83.44;101813.78;5089376;28;20226;-78
2022/01/17 04:15:00;;;;;;;8.90;1.40;;;;;;;4.65;83.33;101815.44;5090356;28;20208;-80
2022/01/17 04:17:29;;;;;;;6.47;1.47;;;;;;;4.66;83.81;101814.63;5089632;28;20232;-79
2022/01/17 04:20:03;;;;;;;6.07;1.47;;;;;;;4.60;84.24;101808.38;5090159;28;20208;-79
2022/01/17 04:22:34;;;;;;;10.60;1.67;;;;;;;4.67;83.59;101805.16;5090092;28;20225;-78
2022/01/17 04:25:00;;;;;;;11.27;1.77;;;;;;;4.66;83.34;101806.88;5089283;28;20196;-79
2022/01/17 04:27:27;;;;;;;5.80;1.37;;;;;;;4.70;82.95;101803.53;5090165;28;20214;-78
2022/01/17 04:29:53;;;;;;;6.73;1.60;;;;;;;4.66;83.63;101780.09;5089462;28;20600;-80
2022/01/17 04:32:22;;;;;;;9.73;1.60;;;;;;;4.73;83.54;101784.63;5089544;28;20204;-79
2022/01/17 04:34:49;;;;;;;4.63;1.33;;;;;;;4.64;83.75;101782.69;5089996;28;20239;-79
2022/01/17 04:37:15;;;;;;;5.37;1.53;;;;;;;4.63;84.10;101772.28;5089698;28;20251;-78
2022/01/17 04:39:43;;;;;;;8.80;1.90;;;;;;;4.65;84.25;101775.78;5088940;28;20232;-79
2022/01/17 04:42:12;;;;;;;9.07;1.77;;;;;;;4.65;83.75;101779.25;5089686;28;20678;-79
2022/01/17 04:47:23;;;;;;;6.73;1.70;;;;;;;4.72;83.58;101830.31;5090455;28;20298;-78
2022/01/17 04:49:50;;;;;;;8.00;1.20;;;;;;;4.72;83.34;101822.56;5089751;28;20944;-79
2022/01/17 04:52:16;;;;;;;6.80;1.43;;;;;;;4.75;83.17;101845.03;5089607;28;20289;-78
2022/01/17 04:54:51;;;;;;;9.60;1.67;;;;;;;4.75;82.44;101860.56;5089565;28;20208;-78
2022/01/17 04:57:17;;;;;;;6.10;1.60;;;;;;;4.67;83.67;101844.81;5089208;28;20755;-78
2022/01/17 04:59:44;;;;;;;8.87;1.83;;;;;;;4.71;82.93;101831.13;5088781;28;20228;-78
2022/01/17 05:02:12;;;;;;;4.83;1.53;;;;;;;4.71;83.68;101836.31;5088872;28;20273;-79
2022/01/17 05:04:39;;;;;;;11.03;1.30;;;;;;;4.69;82.97;101840.56;5089388;28;20266;-78
2022/01/17 05:07:05;;;;;;;6.50;1.97;;;;;;;4.72;83.10;101850.13;5089235;28;20208;-79
2022/01/17 05:09:32;;;;;;;10.53;1.70;;;;;;;4.73;82.72;101852.75;5088624;28;20224;-79
2022/01/17 05:12:00;;;;;;;8.00;2.17;;;;;;;4.73;82.69;101852.75;5089738;28;20215;-79
2022/01/17 05:14:27;;;;;;;4.73;1.10;;;;;;;4.75;82.68;101863.13;5089085;28;20204;-77
2022/01/17 05:17:00;;;;;;;37.90;3.53;;;;;;;4.74;82.32;101854.50;5089154;28;20223;-78
2022/01/17 05:22:23;;;;;;;7.80;1.73;;;;;;;4.76;82.55;101855.44;5005915;28;20354;-79
2022/01/17 05:24:49;;;;;;;5.10;1.60;;;;;;;4.74;82.81;101854.50;5067778;28;20208;-78
2022/01/17 05:27:17;;;;;;;8.07;1.90;;;;;;;4.80;81.91;101863.25;5088716;28;20300;-79
2022/01/17 05:29:46;;;;;;;6.27;1.40;;;;;;;4.85;82.05;101859.09;5088351;28;20231;-79
2022/01/17 05:32:12;;;;;;;8.17;1.50;;;;;;;4.86;82.77;101858.28;5088378;28;20199;-80
2022/01/17 05:34:40;;;;;;;7.10;1.47;;;;;;;4.85;82.55;101854.78;5088346;28;20632;-77
2022/01/17 05:37:07;;;;;;;5.10;1.50;;;;;;;4.79;83.21;101828.75;5087779;28;20388;-78
2022/01/17 05:39:33;;;;;;;5.40;1.73;;;;;;;4.81;82.52;101852.09;5088497;28;20232;-80
2022/01/17 05:42:00;;;;;;;7.13;1.60;;;;;;;4.83;82.13;101834.91;5088522;28;20208;-77
2022/01/17 05:44:27;;;;;;;7.00;1.90;;;;;;;4.80;82.77;101843.47;5088367;28;20262;-78
2022/01/17 05:46:54;;;;;;;9.00;1.67;;;;;;;4.78;83.05;101838.25;5088457;28;20200;-78
2022/01/17 05:49:20;;;;;;;3.43;1.33;;;;;;;4.77;83.18;101859.75;5085087;28;20220;-80
2022/01/17 05:51:47;;;;;;;10.03;2.07;;;;;;;4.77;83.31;101820.94;5086643;28;20269;-77
2022/01/17 05:54:13;;;;;;;6.70;1.77;;;;;;;4.78;83.50;101817.53;5086304;28;20278;-78
2022/01/17 05:56:39;;;;;;;6.73;1.50;;;;;;;4.77;83.64;101820.09;5086665;28;20246;-78
2022/01/17 05:59:06;;;;;;;9.53;1.70;;;;;;;4.79;83.58;101815.81;5086746;28;20228;-79
2022/01/17 06:01:33;;;;;;;5.97;1.73;;;;;;;4.74;84.46;101795.03;5087310;28;20204;-79
2022/01/17 06:04:00;;;;;;;3.63;1.60;;;;;;;4.68;84.74;101768.13;5087540;28;20206;-79
2022/01/17 06:06:26;;;;;;;5.27;1.70;;;;;;;4.66;85.18;101783.59;5087583;28;20221;-80
2022/01/17 06:08:52;;;;;;;4.20;1.10;;;;;;;4.65;85.57;101749.94;5086989;28;20288;-79
2022/01/17 06:11:19;;;;;;;10.43;2.43;;;;;;;4.69;85.97;101762.09;5086728;28;20208;-79
2022/01/17 06:13:45;;;;;;;11.37;1.60;;;;;;;4.68;85.84;101763.81;5087211;28;20682;-79
2022/01/17 06:16:12;;;;;;;4.30;1.10;;;;;;;4.65;86.29;101760.28;5086821;28;20751;-80
2022/01/17 06:18:39;;;;;;;12.17;2.27;;;;;;;4.69;86.55;101755.22;5087067;28;20227;-80
2022/01/17 06:21:06;;;;;;;5.53;1.53;;;;;;;4.71;86.09;101763.88;5086551;28;20265;-79
2022/01/17 06:23:32;;;;;;;7.07;1.37;;;;;;;4.78;86.09;101777.88;5087396;28;20269;-79
2022/01/17 06:25:59;;;;;;;6.20;1.90;;;;;;;4.80;85.09;101814.09;5086707;28;20212;-79
2022/01/17 06:28:26;;;;;;;5.33;1.53;;;;;;;4.81;85.10;101816.75;5086595;28;20694;-78
2022/01/17 06:30:52;;;;;;;8.00;1.30;;;;;;;4.83;85.24;101796.09;5087135;28;20241;-79
2022/01/17 06:33:18;;;;;;;6.03;1.60;;;;;;;4.78;85.89;101768.41;5085768;28;20275;-80
2022/01/17 06:35:46;;;;;;;5.00;1.40;;;;;;;4.81;85.91;101764.13;5086207;28;20200;-78
2022/01/17 06:38:12;;;;;;;5.47;1.27;;;;;;;4.75;85.74;101760.53;5086317;28;20317;-80
2022/01/17 06:40:39;;;;;;;5.67;1.40;;;;;;;4.75;86.06;101764.84;5086626;28;20204;-78
2022/01/17 06:43:08;;;;;;;5.47;1.30;;;;;;;4.76;86.49;101746.78;5086347;28;20265;-79
2022/01/17 06:45:35;;;;;;;7.40;2.13;;;;;;;4.81;85.65;101761.56;5086269;28;20208;-79
2022/01/17 06:48:02;;;;;;;4.57;1.10;;;;;;;4.83;85.32;101775.41;5086237;28;20273;-78
2022/01/17 06:50:29;;;;;;;4.43;1.43;;;;;;;4.83;85.22;101778.00;5086944;28;20214;-79
2022/01/17 06:52:56;;;;;;;4.97;1.80;;;;;;;4.82;85.99;101759.00;5086621;28;20686;-78
2022/01/17 06:55:23;;;;;;;7.63;1.63;;;;;;;4.78;85.98;101757.19;5085702;28;20204;-78
2022/01/17 06:57:49;;;;;;;5.77;1.40;;;;;;;4.75;86.09;101776.06;5087337;28;20228;-79
2022/01/17 07:00:16;;;;;;;4.13;1.33;;;;;;;4.80;86.23;101770.13;5085463;28;20277;-78
2022/01/17 07:02:43;;;;;;;7.33;1.50;;;;;;;4.85;85.72;101797.00;5085744;28;20208;-78
2022/01/17 07:05:09;;;;;;;5.07;1.60;;;;;;;4.89;85.14;101811.78;5086283;28;20196;-79
2022/01/17 07:07:36;;;;;;;5.00;1.77;;;;;;;4.88;85.24;101839.38;5086086;28;20208;-79
2022/01/17 07:10:05;;;;;;;10.50;1.90;;;;;;;4.89;85.23;101853.16;5085093;28;20257;-78
2022/01/17 07:12:31;;;;;;;4.97;1.60;;;;;;;4.98;85.00;101864.66;5086172;28;20277;-78
2022/01/17 07:14:57;;;;;;;4.83;1.43;;;;;;;5.07;85.04;101852.78;5086554;28;20200;-79
2022/01/17 07:17:24;;;;;;;6.33;1.40;;;;;;;5.01;84.91;101845.72;5086170;28;20269;-78
2022/01/17 07:19:50;;;;;;;4.43;0.93;;;;;;;5.00;84.41;101817.25;5087784;28;20224;-79
2022/01/17 07:22:16;;;;;;;4.73;1.60;;;;;;;4.89;85.62;101779.00;5088294;28;20576;-79
2022/01/17 07:24:47;;;;;;;7.07;1.63;;;;;;;4.96;85.29;101778.34;5086422;28;20234;-78
2022/01/17 07:27:15;;;;;;;7.13;2.37;;;;;;;4.95;85.58;101793.81;5087691;28;20211;-79
2022/01/17 07:29:42;;;;;;;7.13;1.50;;;;;;;5.04;85.15;101783.72;5088996;28;20253;-79
2022/01/17 07:32:09;;;;;;;6.10;1.53;;;;;;;5.00;84.88;101794.84;5086411;28;20208;-78
2022/01/17 07:34:36;;;;;;;4.20;1.17;;;;;;;5.02;85.47;101793.16;5085009;28;20257;-79
2022/01/17 07:37:03;;;;;;;3.63;1.30;;;;;;;4.97;86.15;101772.34;5085898;28;20246;-79
2022/01/17 07:39:29;;;;;;;3.40;1.27;;;;;;;4.99;86.16;101769.78;5086167;28;20235;-79
2022/01/17 07:41:55;;;;;;;5.10;1.10;;;;;;;5.00;86.18;101749.97;5086517;28;20226;-79
2022/01/17 07:44:25;;;;;;;9.17;1.83;;;;;;;4.97;86.22;101750.75;5086217;28;20670;-79
2022/01/17 07:46:55;;;;;;;6.03;1.23;;;;;;;5.00;86.97;101735.31;5085476;28;20732;-79
2022/01/17 07:49:22;;;;;;;5.93;1.43;;;;;;;4.83;87.72;101713.31;5085533;28;20588;-79
2022/01/17 07:51:56;;;;;;;3.20;1.20;;;;;;;4.88;87.23;101702.25;5086026;28;21144;-78
2022/01/17 07:54:24;;;;;;;3.73;1.00;;;;;;;4.91;87.37;101694.53;5084204;28;20207;-78
2022/01/17 07:56:50;;;;;;;4.80;1.97;;;;;;;4.90;88.29;101713.50;5085687;28;20211;-80
2022/01/17 07:59:17;;;;;;;6.23;1.50;;;;;;;4.95;88.14;101703.25;5085288;28;20255;-78
2022/01/17 08:01:45;;;;;;;3.63;1.13;;;;;;;5.01;87.74;101703.41;5086702;28;20208;-79
2022/01/17 08:04:12;;;;;;;5.20;1.30;;;;;;;5.00;88.10;101717.19;5085077;28;20203;-79
2022/01/17 08:06:39;;;;;;;2.17;1.40;;;;;;;5.04;88.54;101711.25;5085477;28;20674;-79
2022/01/17 08:09:07;;;;;;;4.37;1.60;;;;;;;5.07;88.27;101705.28;5085058;28;20246;-79
2022/01/17 08:11:33;;;;;;;6.63;1.30;;;;;;;5.10;88.78;101697.59;5086132;28;20208;-79
2022/01/17 08:14:00;;;;;;;4.77;1.50;;;;;;;5.13;88.59;101680.44;5086549;28;20261;-79
2022/01/17 08:16:26;;;;;;;6.47;1.67;;;;;;;5.19;88.49;101690.03;5085871;28;20208;-78
2022/01/17 08:18:54;;;;;;;4.50;1.60;;;;;;;5.17;88.27;101696.88;5085832;28;20231;-80
2022/01/17 08:21:21;;;;;;;5.43;1.33;;;;;;;5.21;87.89;101688.34;5084839;28;20204;-79
2022/01/17 08:23:48;;;;;;;7.43;1.47;;;;;;;5.23;87.96;101672.84;5085525;28;21019;-79
2022/01/17 08:26:14;;;;;;;3.57;1.53;;;;;;;5.31;88.14;101672.22;5084749;28;20208;-79
2022/01/17 08:28:41;;;;;;;5.77;1.43;;;;;;;5.30;88.26;101669.59;5085122;28;20360;-80
2022/01/17 08:31:08;;;;;;;5.57;1.50;;;;;;;5.30;88.55;101654.91;5084891;28;20777;-80
2022/01/17 08:33:34;;;;;;;4.63;1.93;;;;;;;5.22;88.91;101658.19;5085095;28;20207;-80
2022/01/17 08:36:02;;;;;;;6.77;1.40;;;;;;;5.22;89.21;101640.06;5085166;28;20215;-79
2022/01/17 08:38:30;;;;;;;4.60;1.50;;;;;;;5.21;89.66;101636.59;5085111;28;20328;-79
2022/01/17 08:40:58;;;;;;;4.00;1.37;;;;;;;5.16;90.01;101622.69;5086436;28;20204;-80
2022/01/17 08:43:25;;;;;;;4.00;1.70;;;;;;;5.14;91.00;101614.00;5087889;28;20560;-80
2022/01/17 08:45:51;;;;;;;4.80;1.83;;;;;;;5.17;90.54;101603.72;5087950;28;20200;-80
2022/01/17 08:48:17;;;;;;;3.73;1.50;;;;;;;5.21;91.20;101613.28;5087648;28;20220;-79
2022/01/17 08:50:47;;;;;;;4.67;1.33;;;;;;;5.12;91.65;101603.63;5087447;28;20205;-78
2022/01/17 08:53:16;;;;;;;3.00;2.03;;;;;;;5.21;91.71;101583.94;5087129;28;20204;-80
2022/01/17 08:55:43;;;;;;;3.07;1.27;;;;;;;5.25;91.58;101586.66;5086468;28;20821;-79
2022/01/17 08:58:11;;;;;;;5.47;1.80;;;;;;;5.30;91.86;101590.19;5089204;28;20701;-79
2022/01/17 09:00:38;;;;;;;3.47;1.47;;;;;;;5.31;91.64;101589.38;5090934;28;20208;-80
2022/01/17 09:03:05;;;;;;;2.57;1.20;;;;;;;5.35;91.42;101604.13;5091302;28;20204;-79
2022/01/17 09:05:33;;;;;;;6.50;1.23;;;;;;;5.33;92.39;101590.28;5091222;28;20246;-80
2022/01/17 09:08:00;;;;;;;4.53;1.50;;;;;;;5.32;92.24;101564.34;5091118;28;20305;-80
2022/01/17 09:10:28;;;;;;;2.20;1.23;;;;;;;5.47;91.12;101580.22;5090942;28;20207;-80
2022/01/17 09:12:56;;;;;;;4.43;1.60;;;;;;;5.52;91.29;101598.41;5090764;28;20211;-79
2022/01/17 09:15:23;;;;;;;2.43;1.20;;;;;;;5.52;91.21;101617.41;5090351;28;20196;-79
2022/01/17 09:17:50;;;;;;;2.43;1.30;;;;;;;5.51;91.74;101628.63;5090059;28;20220;-78
2022/01/17 09:20:17;;;;;;;7.60;2.10;;;;;;;5.47;92.11;101618.16;5089894;28;20203;-79
2022/01/17 09:22:43;;;;;;;4.80;1.50;;;;;;;5.41;92.89;101563.66;5090642;28;20252;-80
2022/01/17 09:25:10;;;;;;;4.93;1.93;;;;;;;5.42;93.32;101560.25;5088520;28;20200;-79
2022/01/17 09:27:38;;;;;;;4.50;1.30;;;;;;;5.44;92.70;101541.28;5089703;28;20253;-79
2022/01/17 09:30:08;;;;;;;4.77;1.67;;;;;;;5.50;93.71;101553.50;5089368;28;20686;-78
2022/01/17 09:32:35;;;;;;;4.47;1.87;;;;;;;5.46;93.59;101570.69;5090112;28;20204;-79
2022/01/17 09:35:01;;;;;;;3.77;1.30;;;;;;;5.48;93.43;101548.28;5089934;28;20242;-79
2022/01/17 09:37:28;;;;;;;3.03;1.43;;;;;;;5.53;93.53;101549.25;5089872;28;20295;-78
2022/01/17 09:39:54;;;;;;;6.50;2.07;;;;;;;5.61;93.56;101549.41;5088661;28;20644;-78
2022/01/17 09:42:21;;;;;;;2.90;1.47;;;;;;;5.64;93.63;101541.69;5089579;28;20208;-79
2022/01/17 09:44:48;;;;;;;3.37;1.53;;;;;;;5.72;93.10;101588.44;5090178;28;21195;-78
2022/01/17 09:47:16;;;;;;;3.73;1.30;;;;;;;5.74;92.82;101604.91;5089761;28;20208;-79
2022/01/17 09:49:50;;;;;;;2.60;1.30;;;;;;;5.77;92.31;101621.38;5088535;28;20240;-78
2022/01/17 09:52:34;;;;;;;1.63;0.97;;;;;;;5.86;92.34;101614.63;5088783;28;20257;-78
2022/01/17 09:55:04;;;;;;;1.93;1.30;;;;;;;5.82;92.81;101600.72;5087541;28;20211;-78
2022/01/17 09:57:32;;;;;;;3.13;1.67;;;;;;;5.82;92.51;101605.91;5087531;28;20436;-77
2022/01/17 10:00:00;;;;;;;2.83;1.00;;;;;;;5.83;93.22;101592.13;5087015;28;20228;-78
2022/01/17 10:02:27;;;;;;;3.43;1.30;;;;;;;5.93;92.26;101603.56;5089627;28;20199;-78
2022/01/17 10:04:54;;;;;;;3.00;1.30;;;;;;;5.94;92.29;101613.91;5091822;28;20299;-78
2022/01/17 10:07:20;;;;;;;2.83;1.33;;;;;;;5.94;93.17;101602.69;5089922;28;20249;-78
2022/01/17 10:09:55;;;;;;;3.17;1.40;;;;;;;5.92;93.95;101610.44;5086955;28;21293;-78
2022/01/17 10:12:21;;;;;;;4.80;1.73;;;;;;;5.85;94.95;101581.81;5089106;28;20235;-77
2022/01/17 10:14:58;;;;;;;3.50;1.80;;;;;;;5.78;95.76;101527.25;5089355;28;20204;-79
2022/01/17 10:17:43;;;;;;;4.03;2.07;;;;;;;5.77;95.96;101502.22;5089277;28;20250;-79
2022/01/17 10:20:10;;;;;;;5.10;1.80;;;;;;;5.79;96.50;101484.09;5088182;28;20219;-79
2022/01/17 10:22:46;;;;;;;2.73;1.93;;;;;;;5.88;96.76;101479.06;5090052;28;20211;-79
2022/01/17 10:25:24;;;;;;;4.33;1.83;;;;;;;5.92;95.67;101514.53;5088719;28;20225;-78
2022/01/17 10:28:14;;;;;;;2.23;1.63;;;;;;;5.94;95.12;101525.81;5088527;28;20281;-79
2022/01/17 10:31:03;;;;;;;3.27;1.30;;;;;;;5.95;95.14;101524.16;5087801;28;20205;-78
2022/01/17 10:36:18;;;;;;;3.00;1.20;;;;;;;6.05;95.59;101553.69;5088936;28;20212;-78
2022/01/17 10:38:44;;;;;;;4.27;1.87;;;;;;;6.12;94.44;101561.56;5088577;28;20228;-78
2022/01/17 10:41:13;;;;;;;4.27;1.67;;;;;;;6.11;94.92;101559.84;5089369;28;20205;-79
2022/01/17 10:43:42;;;;;;;3.33;1.43;;;;;;;6.21;94.49;101560.00;5088938;28;20208;-79
2022/01/17 10:46:10;;;;;;;6.77;1.87;;;;;;;6.30;93.93;101566.22;5087689;28;20224;-81
2022/01/17 10:48:40;;;;;;;7.53;2.20;;;;;;;6.33;93.27;101617.25;5088879;28;20220;-78
2022/01/17 10:51:08;;;;;;;6.53;1.87;;;;;;;6.37;93.38;101655.38;5087912;28;20211;-79
2022/01/17 10:53:37;;;;;;;4.70;2.03;;;;;;;6.39;93.17;101639.84;5087154;28;20581;-77
2022/01/17 10:56:08;;;;;;;5.70;1.80;;;;;;;6.39;93.62;101611.31;5087164;28;20301;-78
2022/01/17 10:58:37;;;;;;;6.20;2.43;;;;;;;6.39;93.30;101638.13;5087791;28;20263;-79
2022/01/17 11:01:06;;;;;;;5.67;2.27;;;;;;;6.39;94.01;101632.06;5086552;28;20667;-79
2022/01/17 11:03:34;;;;;;;5.33;2.23;;;;;;;6.43;93.32;101647.69;5088330;28;20196;-78
2022/01/17 11:06:06;;;;;;;5.90;2.20;;;;;;;6.46;93.11;101626.13;5087901;28;20464;-79
2022/01/17 11:08:34;;;;;;;5.77;2.20;;;;;;;6.48;93.24;101614.94;5088633;28;20315;-79
2022/01/17 11:11:03;;;;;;;6.43;2.60;;;;;;;6.48;94.17;101607.16;5087620;28;20582;-80
2022/01/17 11:13:31;;;;;;;8.70;4.47;;;;;;;6.35;96.69;101598.28;5088815;28;20210;-80
2022/01/17 11:15:59;;;;;;;8.00;2.60;;;;;;;6.30;97.28;101550.69;5088649;28;20642;-79
2022/01/17 11:18:28;;;;;;;5.67;2.57;;;;;;;6.12;99.36;101501.09;5088093;28;20224;-78
2022/01/17 11:20:56;;;;;;;6.30;3.03;;;;;;;6.07;100.00;101417.22;5087005;28;20200;-78
2022/01/17 11:23:26;;;;;;;7.97;3.60;;;;;;;6.08;100.00;101386.13;5087579;28;20229;-80
2022/01/17 11:25:55;;;;;;;5.63;3.00;;;;;;;6.11;100.00;101377.53;5087158;28;20200;-80
2022/01/17 11:28:23;;;;;;;6.23;2.50;;;;;;;6.19;100.00;101390.63;5086998;28;20314;-79
2022/01/17 11:30:52;;;;;;;13.13;3.23;;;;;;;6.21;100.00;101407.06;5089057;28;20200;-80
2022/01/17 11:33:18;;;;;;;8.00;2.60;;;;;;;6.22;100.00;101396.69;5087580;28;20207;-79
2022/01/17 11:35:51;;;;;;;6.40;3.03;;;;;;;6.19;100.00;101407.03;5087616;28;20652;-78
2022/01/17 11:38:21;;;;;;;7.90;2.63;;;;;;;6.20;100.00;101416.53;5086269;28;20228;-78
2022/01/17 11:40:50;;;;;;;9.43;2.97;;;;;;;6.15;100.00;101408.69;5087888;28;20310;-78
2022/01/17 11:43:20;;;;;;;6.03;2.87;;;;;;;6.16;100.00;101391.41;5086611;28;20684;-79
2022/01/17 11:45:47;;;;;;;6.27;2.77;;;;;;;6.11;100.00;101368.03;5087852;28;20206;-80
2022/01/17 11:48:21;;;;;;;4.00;2.30;;;;;;;6.09;100.00;101379.22;5087251;28;20223;-80